sensor_id;sensor_type;location;lat;lon;timestamp;pressure;altitude;pressure_sealevel;temperature;humidity
78485;BME280;67773;50.806;8.776;2023-04-24T00:00:11;98304.59;;;10.32;81.11
78485;BME280;67773;50.806;8.776;2023-04-24T00:02:41;98307.94;;;10.21;81.27
78485;BME280;67773;50.806;8.776;2023-04-24T00:05:11;98293.22;;;10.17;82.32
78485;BME280;67773;50.806;8.776;2023-04-24T00:07:37;98303.44;;;10.23;82.65
78485;BME280;67773;50.806;8.776;2023-04-24T00:10:03;98298.03;;;10.25;83.25
78485;BME280;67773;50.806;8.776;2023-04-24T00:12:28;98305.53;;;10.31;83.54
78485;BME280;67773;50.806;8.776;2023-04-24T00:14:53;98306.06;;;10.36;83.01
78485;BME280;67773;50.806;8.776;2023-04-24T00:17:19;98298.81;;;10.38;82.84
78485;BME280;67773;50.806;8.776;2023-04-24T00:19:47;98304.13;;;10.38;82.50
78485;BME280;67773;50.806;8.776;2023-04-24T00:22:13;98298.41;;;10.31;81.82
78485;BME280;67773;50.806;8.776;2023-04-24T00:24:39;98293.75;;;10.35;82.29
78485;BME280;67773;50.806;8.776;2023-04-24T00:27:05;98301.41;;;10.27;80.52
78485;BME280;67773;50.806;8.776;2023-04-24T00:29:30;98302.13;;;10.29;82.16
78485;BME280;67773;50.806;8.776;2023-04-24T00:31:55;98300.97;;;10.33;82.50
78485;BME280;67773;50.806;8.776;2023-04-24T00:34:21;98291.09;;;10.35;82.10
78485;BME280;67773;50.806;8.776;2023-04-24T00:36:46;98286.97;;;10.31;81.80
78485;BME280;67773;50.806;8.776;2023-04-24T00:39:11;98283.25;;;10.33;82.18
78485;BME280;67773;50.806;8.776;2023-04-24T00:41:37;98272.00;;;10.30;82.02
78485;BME280;67773;50.806;8.776;2023-04-24T00:44:02;98285.06;;;10.33;81.08
78485;BME280;67773;50.806;8.776;2023-04-24T00:46:28;98276.59;;;10.52;78.68
78485;BME280;67773;50.806;8.776;2023-04-24T00:48:54;98278.63;;;10.48;79.26
78485;BME280;67773;50.806;8.776;2023-04-24T00:51:21;98274.72;;;10.41;81.38
78485;BME280;67773;50.806;8.776;2023-04-24T00:53:46;98270.72;;;10.35;79.75
78485;BME280;67773;50.806;8.776;2023-04-24T00:56:11;98266.50;;;10.33;80.52
78485;BME280;67773;50.806;8.776;2023-04-24T00:58:37;98261.50;;;10.28;81.48
78485;BME280;67773;50.806;8.776;2023-04-24T01:01:03;98259.38;;;10.21;80.96
78485;BME280;67773;50.806;8.776;2023-04-24T01:03:32;98261.53;;;10.16;81.71
78485;BME280;67773;50.806;8.776;2023-04-24T01:05:58;98265.91;;;10.04;82.81
78485;BME280;67773;50.806;8.776;2023-04-24T01:08:24;98260.19;;;9.97;80.81
78485;BME280;67773;50.806;8.776;2023-04-24T01:10:52;98259.22;;;9.98;81.61
78485;BME280;67773;50.806;8.776;2023-04-24T01:13:19;98254.97;;;10.08;80.75
78485;BME280;67773;50.806;8.776;2023-04-24T01:15:45;98257.69;;;10.32;79.72
78485;BME280;67773;50.806;8.776;2023-04-24T01:18:11;98245.72;;;10.27;79.42
78485;BME280;67773;50.806;8.776;2023-04-24T01:20:37;98248.28;;;10.16;81.18
78485;BME280;67773;50.806;8.776;2023-04-24T01:23:05;98243.75;;;10.05;81.67
78485;BME280;67773;50.806;8.776;2023-04-24T01:25:31;98241.69;;;10.08;81.47
78485;BME280;67773;50.806;8.776;2023-04-24T01:27:57;98237.81;;;10.01;80.51
78485;BME280;67773;50.806;8.776;2023-04-24T01:30:22;98244.81;;;10.02;81.11
78485;BME280;67773;50.806;8.776;2023-04-24T01:32:48;98247.41;;;10.15;79.70
78485;BME280;67773;50.806;8.776;2023-04-24T01:35:13;98248.78;;;10.33;78.35
78485;BME280;67773;50.806;8.776;2023-04-24T01:37:39;98238.59;;;10.27;78.46
78485;BME280;67773;50.806;8.776;2023-04-24T01:40:06;98245.50;;;10.30;79.07
78485;BME280;67773;50.806;8.776;2023-04-24T01:42:32;98245.59;;;10.28;79.01
78485;BME280;67773;50.806;8.776;2023-04-24T01:44:58;98249.09;;;10.29;79.12
78485;BME280;67773;50.806;8.776;2023-04-24T01:47:24;98251.03;;;10.27;78.59
78485;BME280;67773;50.806;8.776;2023-04-24T01:49:50;98255.13;;;10.31;79.36
78485;BME280;67773;50.806;8.776;2023-04-24T01:52:15;98247.72;;;10.36;78.54
78485;BME280;67773;50.806;8.776;2023-04-24T01:54:41;98254.81;;;10.35;78.71
78485;BME280;67773;50.806;8.776;2023-04-24T01:57:07;98251.50;;;10.45;78.60
78485;BME280;67773;50.806;8.776;2023-04-24T01:59:33;98241.25;;;10.51;78.71
78485;BME280;67773;50.806;8.776;2023-04-24T02:01:58;98248.97;;;10.43;78.73
78485;BME280;67773;50.806;8.776;2023-04-24T02:04:23;98231.25;;;10.44;78.82
78485;BME280;67773;50.806;8.776;2023-04-24T02:06:49;98238.78;;;10.37;78.51
78485;BME280;67773;50.806;8.776;2023-04-24T02:09:14;98252.06;;;10.37;79.79
78485;BME280;67773;50.806;8.776;2023-04-24T02:11:39;98240.19;;;10.30;80.03
78485;BME280;67773;50.806;8.776;2023-04-24T02:14:05;98240.41;;;10.27;80.05
78485;BME280;67773;50.806;8.776;2023-04-24T02:16:30;98240.31;;;10.28;79.62
78485;BME280;67773;50.806;8.776;2023-04-24T02:18:57;98242.63;;;10.33;79.97
78485;BME280;67773;50.806;8.776;2023-04-24T02:21:23;98248.91;;;10.32;80.17
78485;BME280;67773;50.806;8.776;2023-04-24T02:23:48;98244.44;;;10.32;79.83
78485;BME280;67773;50.806;8.776;2023-04-24T02:26:13;98242.63;;;10.33;79.84
78485;BME280;67773;50.806;8.776;2023-04-24T02:28:39;98259.41;;;10.33;80.39
78485;BME280;67773;50.806;8.776;2023-04-24T02:31:04;98257.25;;;10.38;79.49
78485;BME280;67773;50.806;8.776;2023-04-24T02:33:31;98250.47;;;10.34;80.43
78485;BME280;67773;50.806;8.776;2023-04-24T02:35:56;98255.06;;;10.32;80.66
78485;BME280;67773;50.806;8.776;2023-04-24T02:38:21;98251.88;;;10.15;81.15
78485;BME280;67773;50.806;8.776;2023-04-24T02:40:47;98262.19;;;10.06;81.70
78485;BME280;67773;50.806;8.776;2023-04-24T02:43:12;98260.25;;;10.08;82.52
78485;BME280;67773;50.806;8.776;2023-04-24T02:45:37;98257.19;;;10.15;82.04
78485;BME280;67773;50.806;8.776;2023-04-24T02:48:03;98250.50;;;10.09;81.88
78485;BME280;67773;50.806;8.776;2023-04-24T02:50:29;98266.00;;;9.90;83.04
78485;BME280;67773;50.806;8.776;2023-04-24T02:52:54;98253.84;;;9.87;83.28
78485;BME280;67773;50.806;8.776;2023-04-24T02:55:19;98252.88;;;9.88;83.55
78485;BME280;67773;50.806;8.776;2023-04-24T02:57:45;98261.91;;;9.86;83.33
78485;BME280;67773;50.806;8.776;2023-04-24T03:00:10;98259.66;;;9.79;83.38
78485;BME280;67773;50.806;8.776;2023-04-24T03:02:36;98247.72;;;9.74;83.25
78485;BME280;67773;50.806;8.776;2023-04-24T03:05:02;98239.34;;;9.80;83.66
78485;BME280;67773;50.806;8.776;2023-04-24T03:07:28;98245.91;;;9.74;84.02
78485;BME280;67773;50.806;8.776;2023-04-24T03:09:53;98242.50;;;9.85;83.60
78485;BME280;67773;50.806;8.776;2023-04-24T03:12:19;98244.84;;;9.77;83.92
78485;BME280;67773;50.806;8.776;2023-04-24T03:14:44;98247.59;;;9.75;84.16
78485;BME280;67773;50.806;8.776;2023-04-24T03:17:09;98247.28;;;9.80;84.63
78485;BME280;67773;50.806;8.776;2023-04-24T03:19:35;98226.28;;;9.77;84.13
78485;BME280;67773;50.806;8.776;2023-04-24T03:22:02;98231.47;;;9.78;83.74
78485;BME280;67773;50.806;8.776;2023-04-24T03:24:27;98236.50;;;9.70;84.64
78485;BME280;67773;50.806;8.776;2023-04-24T03:26:53;98228.00;;;9.65;83.99
78485;BME280;67773;50.806;8.776;2023-04-24T03:29:18;98238.41;;;9.55;84.43
78485;BME280;67773;50.806;8.776;2023-04-24T03:31:44;98242.75;;;9.57;83.89
78485;BME280;67773;50.806;8.776;2023-04-24T03:34:09;98241.78;;;9.58;84.37
78485;BME280;67773;50.806;8.776;2023-04-24T03:36:35;98247.06;;;9.58;84.35
78485;BME280;67773;50.806;8.776;2023-04-24T03:39:00;98246.66;;;9.64;84.04
78485;BME280;67773;50.806;8.776;2023-04-24T03:41:25;98240.09;;;9.57;84.10
78485;BME280;67773;50.806;8.776;2023-04-24T03:43:51;98241.25;;;9.65;83.98
78485;BME280;67773;50.806;8.776;2023-04-24T03:46:16;98240.19;;;9.68;83.84
78485;BME280;67773;50.806;8.776;2023-04-24T03:48:41;98247.63;;;9.63;84.32
78485;BME280;67773;50.806;8.776;2023-04-24T03:51:07;98241.69;;;9.59;84.27
78485;BME280;67773;50.806;8.776;2023-04-24T03:53:32;98249.53;;;9.61;84.10
78485;BME280;67773;50.806;8.776;2023-04-24T03:55:57;98249.53;;;9.61;84.08
78485;BME280;67773;50.806;8.776;2023-04-24T03:58:23;98253.44;;;9.55;84.22
78485;BME280;67773;50.806;8.776;2023-04-24T04:00:48;98262.97;;;9.58;84.15
78485;BME280;67773;50.806;8.776;2023-04-24T04:03:14;98262.22;;;9.55;84.09
78485;BME280;67773;50.806;8.776;2023-04-24T04:05:40;98265.53;;;9.59;83.73
78485;BME280;67773;50.806;8.776;2023-04-24T04:08:05;98254.00;;;9.60;83.55
78485;BME280;67773;50.806;8.776;2023-04-24T04:10:31;98264.13;;;9.66;83.72
78485;BME280;67773;50.806;8.776;2023-04-24T04:12:56;98264.97;;;9.67;82.78
78485;BME280;67773;50.806;8.776;2023-04-24T04:15:22;98272.59;;;9.59;82.67
78485;BME280;67773;50.806;8.776;2023-04-24T04:17:47;98277.06;;;9.58;82.75
78485;BME280;67773;50.806;8.776;2023-04-24T04:20:12;98284.72;;;9.63;83.03
78485;BME280;67773;50.806;8.776;2023-04-24T04:22:38;98289.16;;;9.62;82.41
78485;BME280;67773;50.806;8.776;2023-04-24T04:25:04;98292.22;;;9.56;80.74
78485;BME280;67773;50.806;8.776;2023-04-24T04:27:30;98288.50;;;9.59;80.49
78485;BME280;67773;50.806;8.776;2023-04-24T04:30:00;98294.25;;;9.52;79.19
78485;BME280;67773;50.806;8.776;2023-04-24T04:32:32;98298.06;;;9.48;78.76
78485;BME280;67773;50.806;8.776;2023-04-24T04:35:01;98300.56;;;9.37;76.49
78485;BME280;67773;50.806;8.776;2023-04-24T04:37:30;98310.75;;;9.43;76.04
78485;BME280;67773;50.806;8.776;2023-04-24T04:39:56;98315.09;;;9.32;75.50
78485;BME280;67773;50.806;8.776;2023-04-24T04:42:23;98315.72;;;9.35;74.00
78485;BME280;67773;50.806;8.776;2023-04-24T04:44:48;98320.69;;;9.27;70.44
78485;BME280;67773;50.806;8.776;2023-04-24T04:47:15;98331.91;;;9.18;69.94
78485;BME280;67773;50.806;8.776;2023-04-24T04:49:41;98323.88;;;9.19;69.35
78485;BME280;67773;50.806;8.776;2023-04-24T04:52:06;98329.03;;;9.08;70.38
78485;BME280;67773;50.806;8.776;2023-04-24T04:54:32;98346.50;;;9.11;70.99
78485;BME280;67773;50.806;8.776;2023-04-24T04:56:57;98337.06;;;9.07;71.26
78485;BME280;67773;50.806;8.776;2023-04-24T04:59:23;98345.78;;;8.94;71.38
78485;BME280;67773;50.806;8.776;2023-04-24T05:01:48;98347.69;;;8.92;69.27
78485;BME280;67773;50.806;8.776;2023-04-24T05:04:13;98348.34;;;8.96;68.75
78485;BME280;67773;50.806;8.776;2023-04-24T05:06:38;98346.97;;;8.90;67.57
78485;BME280;67773;50.806;8.776;2023-04-24T05:09:04;98360.28;;;8.89;68.21
78485;BME280;67773;50.806;8.776;2023-04-24T05:11:30;98369.56;;;8.82;66.97
78485;BME280;67773;50.806;8.776;2023-04-24T05:13:55;98366.81;;;8.83;66.99
78485;BME280;67773;50.806;8.776;2023-04-24T05:16:20;98365.13;;;8.82;67.33
78485;BME280;67773;50.806;8.776;2023-04-24T05:18:46;98365.72;;;8.73;67.50
78485;BME280;67773;50.806;8.776;2023-04-24T05:21:11;98366.91;;;8.82;67.16
78485;BME280;67773;50.806;8.776;2023-04-24T05:23:37;98379.69;;;8.75;67.78
78485;BME280;67773;50.806;8.776;2023-04-24T05:26:02;98371.00;;;8.73;68.26
78485;BME280;67773;50.806;8.776;2023-04-24T05:28:27;98366.44;;;8.75;66.77
78485;BME280;67773;50.806;8.776;2023-04-24T05:30:54;98371.56;;;8.78;67.22
78485;BME280;67773;50.806;8.776;2023-04-24T05:33:21;98371.41;;;8.67;67.75
78485;BME280;67773;50.806;8.776;2023-04-24T05:35:47;98371.41;;;8.67;68.97
78485;BME280;67773;50.806;8.776;2023-04-24T05:38:13;98374.91;;;8.67;67.16
78485;BME280;67773;50.806;8.776;2023-04-24T05:40:39;98379.13;;;8.70;67.97
78485;BME280;67773;50.806;8.776;2023-04-24T05:43:04;98374.06;;;8.67;67.82
78485;BME280;67773;50.806;8.776;2023-04-24T05:45:30;98385.06;;;8.74;67.88
78485;BME280;67773;50.806;8.776;2023-04-24T05:47:55;98381.56;;;8.87;67.55
78485;BME280;67773;50.806;8.776;2023-04-24T05:50:21;98384.38;;;8.84;66.52
78485;BME280;67773;50.806;8.776;2023-04-24T05:52:46;98391.84;;;8.92;64.99
78485;BME280;67773;50.806;8.776;2023-04-24T05:55:11;98383.50;;;8.98;65.31
78485;BME280;67773;50.806;8.776;2023-04-24T05:57:37;98387.00;;;8.99;64.51
78485;BME280;67773;50.806;8.776;2023-04-24T06:00:03;98386.66;;;8.90;64.64
78485;BME280;67773;50.806;8.776;2023-04-24T06:02:29;98400.25;;;8.99;64.31
78485;BME280;67773;50.806;8.776;2023-04-24T06:04:57;98404.47;;;9.01;65.50
78485;BME280;67773;50.806;8.776;2023-04-24T06:07:24;98395.13;;;8.95;64.55
78485;BME280;67773;50.806;8.776;2023-04-24T06:09:51;98398.53;;;8.98;63.82
78485;BME280;67773;50.806;8.776;2023-04-24T06:12:16;98407.88;;;9.03;65.10
78485;BME280;67773;50.806;8.776;2023-04-24T06:14:41;98407.22;;;9.00;63.36
78485;BME280;67773;50.806;8.776;2023-04-24T06:17:07;98408.19;;;8.99;63.52
78485;BME280;67773;50.806;8.776;2023-04-24T06:19:32;98404.09;;;9.07;63.81
78485;BME280;67773;50.806;8.776;2023-04-24T06:21:57;98414.75;;;9.06;64.18
78485;BME280;67773;50.806;8.776;2023-04-24T06:24:27;98408.91;;;9.01;63.27
78485;BME280;67773;50.806;8.776;2023-04-24T06:26:52;98417.06;;;8.98;63.63
78485;BME280;67773;50.806;8.776;2023-04-24T06:29:18;98425.91;;;9.11;63.12
78485;BME280;67773;50.806;8.776;2023-04-24T06:31:43;98426.38;;;9.17;62.94
78485;BME280;67773;50.806;8.776;2023-04-24T06:34:08;98413.69;;;9.35;62.41
78485;BME280;67773;50.806;8.776;2023-04-24T06:36:34;98422.81;;;9.83;61.48
78485;BME280;67773;50.806;8.776;2023-04-24T06:39:00;98415.09;;;10.19;61.04
78485;BME280;67773;50.806;8.776;2023-04-24T06:41:26;98432.59;;;10.08;60.96
78485;BME280;67773;50.806;8.776;2023-04-24T06:43:51;98419.22;;;9.97;62.15
78485;BME280;67773;50.806;8.776;2023-04-24T06:46:16;98419.56;;;10.05;63.42
78485;BME280;67773;50.806;8.776;2023-04-24T06:48:42;98419.22;;;9.97;61.02
78485;BME280;67773;50.806;8.776;2023-04-24T06:51:07;98424.44;;;10.11;61.32
78485;BME280;67773;50.806;8.776;2023-04-24T06:53:33;98425.25;;;9.87;61.11
78485;BME280;67773;50.806;8.776;2023-04-24T06:55:58;98429.50;;;9.89;60.76
78485;BME280;67773;50.806;8.776;2023-04-24T06:58:24;98429.50;;;9.89;61.81
78485;BME280;67773;50.806;8.776;2023-04-24T07:00:50;98429.59;;;10.00;60.67
78485;BME280;67773;50.806;8.776;2023-04-24T07:03:15;98424.84;;;9.93;60.69
78485;BME280;67773;50.806;8.776;2023-04-24T07:05:41;98411.50;;;9.94;61.11
78485;BME280;67773;50.806;8.776;2023-04-24T07:08:07;98413.69;;;9.88;60.69
78485;BME280;67773;50.806;8.776;2023-04-24T07:10:32;98412.63;;;9.65;61.94
78485;BME280;67773;50.806;8.776;2023-04-24T07:13:00;98406.81;;;9.72;61.88
78485;BME280;67773;50.806;8.776;2023-04-24T07:15:26;98403.22;;;9.86;61.67
78485;BME280;67773;50.806;8.776;2023-04-24T07:17:52;98407.13;;;9.80;61.97
78485;BME280;67773;50.806;8.776;2023-04-24T07:20:17;98397.50;;;9.92;61.22
78485;BME280;67773;50.806;8.776;2023-04-24T07:22:42;98405.56;;;9.91;61.13
78485;BME280;67773;50.806;8.776;2023-04-24T07:25:08;98398.13;;;10.08;61.99
78485;BME280;67773;50.806;8.776;2023-04-24T07:27:34;98401.53;;;10.36;61.04
78485;BME280;67773;50.806;8.776;2023-04-24T07:30:01;98403.78;;;10.42;60.00
78485;BME280;67773;50.806;8.776;2023-04-24T07:32:26;98399.13;;;10.33;60.10
78485;BME280;67773;50.806;8.776;2023-04-24T07:34:51;98397.38;;;10.57;60.37
78485;BME280;67773;50.806;8.776;2023-04-24T07:37:17;98399.78;;;10.60;59.83
78485;BME280;67773;50.806;8.776;2023-04-24T07:39:42;98401.56;;;10.85;59.08
78485;BME280;67773;50.806;8.776;2023-04-24T07:42:08;98410.75;;;10.92;57.45
78485;BME280;67773;50.806;8.776;2023-04-24T07:44:33;98412.25;;;10.96;57.39
78485;BME280;67773;50.806;8.776;2023-04-24T07:46:58;98416.88;;;11.06;56.59
78485;BME280;67773;50.806;8.776;2023-04-24T07:49:24;98411.03;;;11.01;56.96
78485;BME280;67773;50.806;8.776;2023-04-24T07:51:49;98412.78;;;10.89;56.85
78485;BME280;67773;50.806;8.776;2023-04-24T07:54:15;98413.69;;;11.01;56.55
78485;BME280;67773;50.806;8.776;2023-04-24T07:56:41;98419.81;;;11.14;55.57
78485;BME280;67773;50.806;8.776;2023-04-24T08:02:10;98430.25;;;10.67;57.35
78485;BME280;67773;50.806;8.776;2023-04-24T08:04:36;98421.81;;;10.86;57.34
78485;BME280;67773;50.806;8.776;2023-04-24T08:07:01;98428.22;;;10.84;56.21
78485;BME280;67773;50.806;8.776;2023-04-24T08:09:26;98430.25;;;11.04;55.23
78485;BME280;67773;50.806;8.776;2023-04-24T08:11:51;98414.84;;;11.09;56.14
78485;BME280;67773;50.806;8.776;2023-04-24T08:14:18;98428.97;;;11.93;55.07
78485;BME280;67773;50.806;8.776;2023-04-24T08:16:43;98428.91;;;12.17;53.28
78485;BME280;67773;50.806;8.776;2023-04-24T08:19:09;98432.03;;;11.75;53.22
78485;BME280;67773;50.806;8.776;2023-04-24T08:21:34;98444.00;;;11.46;54.25
78485;BME280;67773;50.806;8.776;2023-04-24T08:23:59;98434.75;;;11.27;54.90
78485;BME280;67773;50.806;8.776;2023-04-24T08:26:25;98446.94;;;10.93;56.53
78485;BME280;67773;50.806;8.776;2023-04-24T08:28:50;98448.16;;;10.89;55.48
78485;BME280;67773;50.806;8.776;2023-04-24T08:31:16;98473.75;;;10.78;56.08
78485;BME280;67773;50.806;8.776;2023-04-24T08:33:41;98468.78;;;10.60;56.66
78485;BME280;67773;50.806;8.776;2023-04-24T08:36:07;98473.44;;;10.69;56.89
78485;BME280;67773;50.806;8.776;2023-04-24T08:38:33;98471.97;;;10.65;57.19
78485;BME280;67773;50.806;8.776;2023-04-24T08:41:00;98466.84;;;10.88;57.44
78485;BME280;67773;50.806;8.776;2023-04-24T08:43:25;98469.34;;;11.39;56.01
78485;BME280;67773;50.806;8.776;2023-04-24T08:45:52;98456.06;;;11.39;55.40
78485;BME280;67773;50.806;8.776;2023-04-24T08:48:17;98452.56;;;11.38;56.16
78485;BME280;67773;50.806;8.776;2023-04-24T08:50:43;98455.41;;;11.35;54.74
78485;BME280;67773;50.806;8.776;2023-04-24T08:53:10;98453.94;;;11.31;55.81
78485;BME280;67773;50.806;8.776;2023-04-24T08:55:35;98447.81;;;11.66;54.70
78485;BME280;67773;50.806;8.776;2023-04-24T08:58:02;98447.84;;;11.42;55.07
78485;BME280;67773;50.806;8.776;2023-04-24T09:00:28;98447.50;;;11.70;55.36
78485;BME280;67773;50.806;8.776;2023-04-24T09:02:54;98441.06;;;11.97;54.99
78485;BME280;67773;50.806;8.776;2023-04-24T09:05:21;98462.94;;;11.65;54.83
78485;BME280;67773;50.806;8.776;2023-04-24T09:07:53;98442.81;;;11.50;56.16
78485;BME280;67773;50.806;8.776;2023-04-24T09:10:20;98455.44;;;11.59;56.41
78485;BME280;67773;50.806;8.776;2023-04-24T09:12:46;98449.00;;;11.26;57.54
78485;BME280;67773;50.806;8.776;2023-04-24T09:15:11;98463.84;;;10.92;57.70
78485;BME280;67773;50.806;8.776;2023-04-24T09:17:37;98475.53;;;10.90;57.95
78485;BME280;67773;50.806;8.776;2023-04-24T09:20:03;98475.47;;;10.66;58.95
78485;BME280;67773;50.806;8.776;2023-04-24T09:22:30;98477.25;;;10.78;59.26
78485;BME280;67773;50.806;8.776;2023-04-24T09:25:08;98463.72;;;11.07;57.80
78485;BME280;67773;50.806;8.776;2023-04-24T09:27:34;98457.44;;;11.55;57.00
78485;BME280;67773;50.806;8.776;2023-04-24T09:30:00;98457.13;;;11.60;56.90
78485;BME280;67773;50.806;8.776;2023-04-24T09:32:26;98462.31;;;11.85;55.68
78485;BME280;67773;50.806;8.776;2023-04-24T09:35:10;98456.56;;;11.44;56.60
78485;BME280;67773;50.806;8.776;2023-04-24T09:37:44;98454.53;;;11.47;57.13
78485;BME280;67773;50.806;8.776;2023-04-24T09:40:10;98452.03;;;11.33;57.45
78485;BME280;67773;50.806;8.776;2023-04-24T09:42:40;98455.47;;;11.22;58.82
78485;BME280;67773;50.806;8.776;2023-04-24T09:45:09;98459.78;;;11.60;58.47
78485;BME280;67773;50.806;8.776;2023-04-24T09:47:38;98464.59;;;11.31;58.71
78485;BME280;67773;50.806;8.776;2023-04-24T09:50:12;98484.47;;;10.89;59.88
78485;BME280;67773;50.806;8.776;2023-04-24T09:53:06;98487.34;;;10.73;62.50
78485;BME280;67773;50.806;8.776;2023-04-24T09:55:39;98486.63;;;10.46;63.06
78485;BME280;67773;50.806;8.776;2023-04-24T09:58:09;98497.66;;;10.27;64.60
78485;BME280;67773;50.806;8.776;2023-04-24T10:00:35;98493.09;;;10.29;63.37
78485;BME280;67773;50.806;8.776;2023-04-24T10:03:02;98489.19;;;10.34;62.81
78485;BME280;67773;50.806;8.776;2023-04-24T10:05:32;98499.28;;;10.42;62.21
78485;BME280;67773;50.806;8.776;2023-04-24T10:08:23;98500.31;;;10.65;62.24
78485;BME280;67773;50.806;8.776;2023-04-24T10:10:50;98507.72;;;10.85;61.34
78485;BME280;67773;50.806;8.776;2023-04-24T10:13:15;98527.91;;;10.88;61.20
78485;BME280;67773;50.806;8.776;2023-04-24T10:15:41;98529.41;;;10.66;61.36
78485;BME280;67773;50.806;8.776;2023-04-24T10:18:08;98510.41;;;10.34;62.62
78485;BME280;67773;50.806;8.776;2023-04-24T10:20:36;98527.28;;;10.06;65.55
78485;BME280;67773;50.806;8.776;2023-04-24T10:23:04;98543.28;;;9.92;65.65
78485;BME280;67773;50.806;8.776;2023-04-24T10:25:31;98550.78;;;9.86;67.80
78485;BME280;67773;50.806;8.776;2023-04-24T10:27:58;98570.03;;;9.75;67.26
78485;BME280;67773;50.806;8.776;2023-04-24T10:30:29;98578.03;;;9.61;70.10
78485;BME280;67773;50.806;8.776;2023-04-24T10:32:55;98596.00;;;9.70;69.68
78485;BME280;67773;50.806;8.776;2023-04-24T10:35:21;98581.06;;;10.08;68.32
78485;BME280;67773;50.806;8.776;2023-04-24T10:38:12;98588.69;;;10.40;65.74
78485;BME280;67773;50.806;8.776;2023-04-24T10:40:37;98588.63;;;10.15;65.10
78485;BME280;67773;50.806;8.776;2023-04-24T10:43:06;98601.97;;;10.40;64.05
78485;BME280;67773;50.806;8.776;2023-04-24T10:45:38;98609.53;;;10.59;63.15
78485;BME280;67773;50.806;8.776;2023-04-24T10:48:05;98615.06;;;10.68;63.39
78485;BME280;67773;50.806;8.776;2023-04-24T10:50:46;98627.94;;;11.00;62.65
78485;BME280;67773;50.806;8.776;2023-04-24T10:53:17;98626.84;;;10.64;60.97
78485;BME280;67773;50.806;8.776;2023-04-24T10:55:48;98625.84;;;10.40;60.47
78485;BME280;67773;50.806;8.776;2023-04-24T10:58:14;98641.44;;;10.18;61.19
78485;BME280;67773;50.806;8.776;2023-04-24T11:00:42;98650.16;;;9.78;62.58
78485;BME280;67773;50.806;8.776;2023-04-24T11:03:29;98656.94;;;9.70;63.63
78485;BME280;67773;50.806;8.776;2023-04-24T11:05:56;98659.94;;;9.78;64.17
78485;BME280;67773;50.806;8.776;2023-04-24T11:08:23;98649.72;;;10.40;58.93
78485;BME280;67773;50.806;8.776;2023-04-24T11:13:24;98661.66;;;10.73;59.18
78485;BME280;67773;50.806;8.776;2023-04-24T11:16:13;98676.59;;;10.48;57.84
78485;BME280;67773;50.806;8.776;2023-04-24T11:18:39;98675.97;;;10.03;59.36
78485;BME280;67773;50.806;8.776;2023-04-24T11:21:17;98664.88;;;10.11;58.75
78485;BME280;67773;50.806;8.776;2023-04-24T11:23:43;98683.94;;;10.03;58.73
78485;BME280;67773;50.806;8.776;2023-04-24T11:26:10;98688.31;;;9.76;60.44
78485;BME280;67773;50.806;8.776;2023-04-24T11:28:37;98704.03;;;9.93;59.13
78485;BME280;67773;50.806;8.776;2023-04-24T11:31:33;98689.84;;;9.80;59.72
78485;BME280;67773;50.806;8.776;2023-04-24T11:34:06;98696.38;;;9.74;60.18
78485;BME280;67773;50.806;8.776;2023-04-24T11:36:32;98688.47;;;9.60;60.11
78485;BME280;67773;50.806;8.776;2023-04-24T11:38:57;98685.19;;;9.83;60.31
78485;BME280;67773;50.806;8.776;2023-04-24T11:41:23;98702.50;;;9.89;60.70
78485;BME280;67773;50.806;8.776;2023-04-24T11:43:48;98685.53;;;10.06;60.37
78485;BME280;67773;50.806;8.776;2023-04-24T11:46:16;98678.78;;;10.15;59.14
78485;BME280;67773;50.806;8.776;2023-04-24T11:48:45;98682.34;;;10.28;59.11
78485;BME280;67773;50.806;8.776;2023-04-24T11:51:12;98686.59;;;10.30;59.67
78485;BME280;67773;50.806;8.776;2023-04-24T11:53:37;98687.81;;;10.79;59.08
78485;BME280;67773;50.806;8.776;2023-04-24T11:56:03;98709.72;;;11.08;57.38
78485;BME280;67773;50.806;8.776;2023-04-24T11:58:34;98696.97;;;11.13;57.42
78485;BME280;67773;50.806;8.776;2023-04-24T12:01:00;98701.28;;;10.63;58.47
78485;BME280;67773;50.806;8.776;2023-04-24T12:03:26;98698.41;;;10.79;59.67
78485;BME280;67773;50.806;8.776;2023-04-24T12:05:51;98699.28;;;10.79;58.10
78485;BME280;67773;50.806;8.776;2023-04-24T12:08:29;98709.63;;;11.35;56.96
78485;BME280;67773;50.806;8.776;2023-04-24T12:10:54;98700.91;;;11.07;56.64
78485;BME280;67773;50.806;8.776;2023-04-24T12:13:19;98702.59;;;11.59;55.83
78485;BME280;67773;50.806;8.776;2023-04-24T12:15:45;98713.25;;;11.46;56.42
78485;BME280;67773;50.806;8.776;2023-04-24T12:18:13;98702.59;;;11.34;57.28
78485;BME280;67773;50.806;8.776;2023-04-24T12:20:41;98717.25;;;11.01;57.95
78485;BME280;67773;50.806;8.776;2023-04-24T12:23:07;98730.00;;;10.96;58.55
78485;BME280;67773;50.806;8.776;2023-04-24T12:25:32;98719.91;;;10.61;59.87
78485;BME280;67773;50.806;8.776;2023-04-24T12:30:44;98723.50;;;10.48;61.33
78485;BME280;67773;50.806;8.776;2023-04-24T12:33:17;98747.06;;;10.92;58.71
78485;BME280;67773;50.806;8.776;2023-04-24T12:35:42;98732.75;;;10.94;58.54
78485;BME280;67773;50.806;8.776;2023-04-24T12:38:09;98739.59;;;10.72;58.58
78485;BME280;67773;50.806;8.776;2023-04-24T12:40:35;98725.09;;;11.03;58.19
78485;BME280;67773;50.806;8.776;2023-04-24T12:43:01;98718.63;;;12.32;54.23
78485;BME280;67773;50.806;8.776;2023-04-24T12:45:26;98732.38;;;11.90;54.75
78485;BME280;67773;50.806;8.776;2023-04-24T12:47:53;98730.25;;;12.19;54.77
78485;BME280;67773;50.806;8.776;2023-04-24T12:50:18;98722.25;;;12.31;54.79
78485;BME280;67773;50.806;8.776;2023-04-24T12:52:44;98712.81;;;12.38;54.28
78485;BME280;67773;50.806;8.776;2023-04-24T12:55:10;98721.88;;;12.60;53.16
78485;BME280;67773;50.806;8.776;2023-04-24T12:57:38;98725.38;;;12.12;53.99
78485;BME280;67773;50.806;8.776;2023-04-24T13:00:05;98735.13;;;11.63;55.90
78485;BME280;67773;50.806;8.776;2023-04-24T13:02:32;98731.09;;;11.70;56.12
78485;BME280;67773;50.806;8.776;2023-04-24T13:04:58;98727.69;;;11.80;54.83
78485;BME280;67773;50.806;8.776;2023-04-24T13:07:24;98733.97;;;12.16;54.51
78485;BME280;67773;50.806;8.776;2023-04-24T13:09:50;98748.06;;;12.05;54.06